Antelope Valley, Nevada Weather observations

Data are for 10 minute period ending at time listed.
 Day   Time   Solar   Ave.   Ave.  Ave.  Vector  Max.   Baro.   Total    
  of    of     Rad.   Air    Rel.  Wind   Wind   Wind  Press.  Precip.   
Year   Day            Temp.  Hum.  Speed  Dir.   Gust                    
2014   (PST)  Kw/m2    F      %     mph   deg.    mph    mb.     in.     
-------------------------------------------------------------------------
 114    1:20   0.00   36.2    56    3.6   207     4.5   850.1    0.00 
 114    1:30   0.00   35.5    63    4.3   196     5.2   850.1    0.00 
 114    1:40   0.00   35.5    63    3.1   230     3.7   850.0    0.00 
 114    1:50   0.00   35.3    61    3.2   241     4.3   850.1    0.00 
 114    2:00   0.00   35.5    60    3.4   242     4.5   850.1    0.00 
 114    2:10   0.00   36.7    54    4.5   234     5.7   850.2    0.00 
 114    2:20   0.00   37.5    51    4.5   214     6.1   850.1    0.00 
 114    2:30   0.00   37.0    56    3.9   178     4.7   849.9    0.00 
 114    2:40   0.00   36.7    60    2.4   147     4.8   849.8    0.00 
 114    2:50   0.00   37.5    54    2.1   181     2.6   849.9    0.00 
 114    3:00   0.00   37.8    57    1.9   260     2.8   850.0    0.00 
 114    3:10   0.00   37.4    61    3.3   202     4.7   850.1    0.00 
 114    3:20   0.00   37.6    56    4.6   194     6.3   850.1    0.00 
 114    3:30   0.00   37.6    53    5.1   181     6.6   850.1    0.00 
 114    3:40   0.00   37.4    50    5.0   153     5.8   850.0    0.00 
 114    3:50   0.00   38.2    46    5.5   157     6.4   850.0    0.00 
 114    4:00   0.00   38.9    44    4.7   166     6.4   850.0    0.00 
 114    4:10   0.00   39.3    42    5.2   177     6.2   850.0    0.00 
 114    4:20   0.00   39.3    43    4.9   175     5.7   850.1    0.00 
 114    4:30   0.00   38.3    52    3.0   213     4.4   850.2    0.00 
 114    4:40   0.00   37.6    52    4.3   193     5.2   850.2    0.00 
 114    4:50   0.00   37.9    51    4.2   189     5.0   850.1    0.00 
 114    5:00   0.00   37.7    53    4.1   172     5.0   850.1    0.00 
 114    5:10   0.01   37.8    56    2.7   239     3.8   850.3    0.00 
 114    5:20   0.01   36.3    61    2.9   248     4.5   850.3    0.00 
 114    5:30   0.02   36.6    56    2.8   223     4.1   850.3    0.00 
 114    5:40   0.04   35.9    60    4.5   194     5.2   850.2    0.00 
 114    5:50   0.06   35.5    62    3.4   203     4.7   850.3    0.00 
 114    6:00   0.12   36.6    58    4.4   213     6.3   850.2    0.00 
 114    6:10   0.19   37.9    55    5.6   233     7.2   850.3    0.00 
 114    6:20   0.17   40.6    50    4.5   242     6.4   850.4    0.00 
 114    6:30   0.25   42.8    48    4.4   220     6.2   850.6    0.00 
 114    6:40   0.28   45.0    40    5.2   212     6.8   850.5    0.00 
 114    6:50   0.21   45.5    40    5.6   213     6.9   850.5    0.00 
 114    7:00   0.20   45.6    42    5.6   231     7.2   850.7    0.00 
 114    7:10   0.23   46.7    41    5.5   242     7.5   850.7    0.00 
 114    7:20   0.23   47.6    38    7.2   255     9.0   850.9    0.00 
 114    7:30   0.34   49.1    32    6.7   263     8.3   851.0    0.00 
 114    7:40   0.29   49.9    29    5.6   260     7.5   851.1    0.00 
 114    7:50   0.36   50.6    30    4.7   243     6.7   851.1    0.00 
 114    8:00   0.52   52.6    30    5.7   228     9.0   851.2    0.00 
 114    8:10   0.47   53.8    29    8.3   230    14.2   851.2    0.00 
 114    8:20   0.44   54.5    29   10.4   229    13.5   851.3    0.00 
 114    8:30   0.42   54.8    30   11.6   239    18.0   851.4    0.00 
 114    8:40   0.44   55.4    31   13.5   232    18.6   851.3    0.00 
 114    8:50   0.51   56.0    31   14.3   232    18.2   851.2    0.00 
 114    9:00   0.52   56.4    31   13.1   242    17.4   851.3    0.00 
 114    9:10   0.51   56.2    30   12.6   228    17.6   851.3    0.00 
 114    9:20   0.44   56.6    30   12.9   230    17.1   851.2    0.00 
 114    9:30   0.46   56.7    30   11.4   246    16.7   851.2    0.00 
 114    9:40   0.54   57.3    30   11.4   238    18.5   851.3    0.00 
 114    9:50   0.56   57.8    30   14.1   235    21.5   851.3    0.00 
 114   10:00   0.59   57.9    30   14.1   239    21.0   851.2    0.00 
 114   10:10   0.66   58.5    30   15.7   233    22.9   851.1    0.00 
 114   10:20   0.67   58.3    30   14.7   240    20.3   851.1    0.00 
 114   10:30   0.64   58.5    30   13.9   244    19.4   851.0    0.00 
 114   10:40   0.59   58.9    29   13.6   239    19.0   850.9    0.00 
 114   10:50   0.57   59.1    29   13.4   242    18.8   850.8    0.00 
 114   11:00   0.64   59.4    27   13.5   237    19.9   850.7    0.00 
 114   11:10   0.60   60.1    27   12.6   235    19.1   850.5    0.00 
 114   11:20   0.49   60.1    26   11.4   238    18.2   850.4    0.00 
 114   11:30   0.60   60.1    26    9.5   247    18.9   850.3    0.00 
 114   11:40   0.68   60.7    25   10.8   253    17.6   850.2    0.00 
 114   11:50   0.52   61.1    25   12.4   239    25.1   850.1    0.00 
 114   12:00   0.73   62.0    24   12.7   240    25.0   850.0    0.00 
 114   12:10   0.70   61.5    24   14.3   236    22.9   849.9    0.00 
 114   12:20   0.78   62.1    23   13.7   232    22.6   849.8    0.00 
 114   12:30   0.53   62.0    22   14.3   237    21.5   849.7    0.00 
 114   12:40   0.48   61.8    22   14.9   242    21.4   849.7    0.00 
 114   12:50   0.48   61.6    21   15.4   259    24.0   849.6    0.00 
 114   13:00   0.51   61.7    22   14.7   251    24.0   849.6    0.00 
 114   13:10   0.62   62.1    22   13.6   248    21.2   849.6    0.00 
 114   13:20   0.51   62.7    22   14.4   265    20.3   849.6    0.00 
 114   13:30   0.39   61.8    23   13.6   264    20.9   849.6    0.00 
 114   13:40   0.40   61.4    23    9.5   254    15.7   849.6    0.00 
 114   13:50   0.46   62.0    23   12.7   266    23.1   849.4    0.00 
 114   14:00   0.39   61.8    23   11.9   263    20.0   849.4    0.00 
 114   14:10   0.34   61.3    24    9.8   275    18.9   849.3    0.00 
 114   14:20   0.28   61.4    24    9.2   263    14.3   849.2    0.00 
 114   14:30   0.32   61.3    24   10.8   262    14.7   849.1    0.00 
 114   14:40   0.33   61.2    24    8.4   262    14.2   849.0    0.00 
 114   14:50   0.34   61.4    23   10.2   272    15.9   848.7    0.00 
 114   15:00   0.37   61.6    24    8.9   260    13.9   848.5    0.00 
 114   15:10   0.34   61.4    24   10.1   276    14.6   848.4    0.00 
 114   15:20   0.34   61.7    24   11.2   260    15.9   848.1    0.00 
 114   15:30   0.35   61.6    24   10.3   262    15.7   847.9    0.00 
 114   15:40   0.46   62.0    23    8.9   268    12.6   847.6    0.00 
 114   15:50   0.41   62.5    23    9.6   257    14.8   847.5    0.00 
 114   16:00   0.38   62.2    23    8.8   248    13.4   847.5    0.00 
 114   16:10   0.41   62.8    23    9.5   244    15.9   847.4    0.00 
 114   16:20   0.27   62.8    24    9.2   214    14.5   847.4    0.00 
 114   16:30   0.28   62.5    24    8.8   244    14.8   847.4    0.00 
 114   16:40   0.29   62.8    24   11.3   242    18.3   847.3    0.00 
 114   16:50   0.30   62.7    25   14.3   232    19.1   847.2    0.00 
 114   17:00   0.27   62.5    26   14.8   233    20.1   847.2    0.00 
 114   17:10   0.20   61.8    26   14.9   231    19.6   847.1    0.00 
 114   17:20   0.18   61.4    27   12.2   229    17.0   847.0    0.00 
 114   17:30   0.12   61.0    28   12.7   229    16.9   847.0    0.00 
 114   17:40   0.11   60.5    28   11.3   241    17.0   846.9    0.00 
 114   17:50   0.06   60.1    29    9.5   244    13.1   846.9    0.00 
 114   18:00   0.05   59.9    28   12.8   250    24.6   846.9    0.00 
 114   18:10   0.03   59.5    29   13.0   263    17.9   846.9    0.00 
 114   18:20   0.01   58.8    30   11.9   257    16.6   847.0    0.00 
 114   18:30   0.01   57.8    32   10.2   254    13.1   847.1    0.00 
 114   18:40   0.00   57.5    32   10.2   249    13.5   847.0    0.00 
 114   18:50   0.00   56.6    34    5.9   249     8.8   846.9    0.00 
 114   19:00   0.00   55.3    38    5.4   246     8.7   846.9    0.00 
 114   19:10   0.00   54.8    39    5.8   242     8.3   846.9    0.00 
 114   19:20   0.00   54.7    39    8.6   234    15.1   846.9    0.00 
 114   19:30   0.00   55.5    37   10.5   254    15.3   846.8    0.00 
 114   19:40   0.00   55.0    38    7.3   233    12.1   846.8    0.00 
 114   19:50   0.00   53.5    43    5.5   236     7.9   846.9    0.00 
 114   20:00   0.00   52.2    46    3.7   212     5.0   846.9    0.00 
 114   20:10   0.00   51.2    47    4.4   163     6.6   846.9    0.00 
 114   20:20   0.00   51.1    45    2.9   146     3.7   846.8    0.00 
 114   20:30   0.00   51.4    42    1.3   116     2.9   846.6    0.00 
 114   20:40   0.00   48.3    60    4.1   326     6.4   846.6    0.00 
 114   20:50   0.00   50.4    47    4.6   272     6.9   846.7    0.00 
 114   21:00   0.00   51.9    43    5.0   252     6.1   846.6    0.00 
 114   21:10   0.00   51.5    44    5.1   238     7.6   846.6    0.00 
 114   21:20   0.00   53.0    40    6.5   225    10.4   846.5    0.00 
 114   21:30   0.00   51.4    47    4.0   241     5.6   846.5    0.00 
 114   21:40   0.00   51.0    46    4.1   239     5.4   846.5    0.00 
 114   21:50   0.00   50.3    48    3.4   247     4.5   846.5    0.00 
 114   22:00   0.00   50.7    44    5.9   227    15.6   846.5    0.00 
 114   22:10   0.00   53.0    38    9.2   234    12.7   846.5    0.00 
 114   22:20   0.00   53.1    37   12.4   226    17.5   846.5    0.00 
 114   22:30   0.00   53.7    33   16.3   240    22.8   846.4    0.00 
 114   22:40   0.00   53.5    33   14.0   241    19.7   846.4    0.00 
 114   22:50   0.00   53.0    36   14.2   219    18.8   846.4    0.00 
 114   23:00   0.00   52.2    39   13.0   213    16.5   846.4    0.00 
 114   23:10   0.00   51.5    43   13.2   204    17.4   846.4    0.00 
 114   23:20   0.00   51.1    46   12.4   189    17.0   846.3    0.00 
 114   23:30   0.00   50.3    50   13.8   171    18.2   846.1    0.00 
 114   23:40   0.00   49.6    53   12.7   172    17.5   846.0    0.00 
 114   23:50   0.00   49.3    55   12.2   173    16.7   845.9    0.00 
 115    0:00   0.00   49.3    55   12.2   172    15.6   845.8    0.00 
 115    0:10   0.00   48.8    57   11.4   185    15.7   845.8    0.00 
 115    0:20   0.00   48.6    57   11.2   182    17.0   845.7    0.00 
 115    0:30   0.00   49.0    56   13.0   178    16.6   845.4    0.00 
 115    0:40   0.00   49.0    56   12.1   177    15.8   845.3    0.00 
 115    0:50   0.00   49.0    56   10.8   177    13.7   845.2    0.00 
 115    1:00   0.00   49.0    56   11.1   180    13.2   845.2    0.00 
 115    1:10   0.00   49.0    57   11.6   175    15.3   845.1    0.00 

Return to Antelope Valley graphs page.


Western Regional Climate Center,wrcc@dri.edu